• Join FlightAware (Why Join?)
  • Login
  • US Flag 
04:09PM EDT


 

Airport Tracker/Info


-or-


 

Live Flight TrackerFlight Track Log ✈ TGW246 ✈ 17-Jul-2013 ✈ YSSY / SYD - YBCG / OOL

Flight Track Log - Related Links

Times and Time Zones

All times are in EDT time to prevent confusion due to time zone crossing. See the TGW246 flight status page for this flight to view local times or setup timezone preferences in your user account.

Time Position Orientation Groundspeed Altitude Reporting Facility
EDT Latitude Longitude Course Direction KTS MPH feet Rate Location/Type
03:27AM -33.9350 151.1780 191° South 2 2  Level FlightAware
03:29AM -33.9360 151.1780 180° South 3 3 60 Level FlightAware
03:31AM -33.7980 151.3817 51° Northeast  Level FlightAware Approximate
03:32AM -33.7246 151.4897 51° Northeast  Level FlightAware Approximate
03:33AM -33.6511 151.5974 51° Northeast  Level FlightAware Approximate
03:34AM -33.5771 151.6987 15° North  Level FlightAware Approximate
03:34AM -33.9500 151.1800 15° North 23 26  Level FlightAware
03:35AM -33.4652 151.7351 15° North  Level FlightAware Approximate
03:35AM -33.9510 151.1810 140° Southeast 14 16  Level FlightAware
03:35AM -33.9510 151.1840 90° East 18 21 180 Level FlightAware
03:36AM -33.9510 151.1850 90° East 13 15 180 Level FlightAware
03:36AM -33.9530 151.1870 140° Southeast 19 22 240 Level FlightAware
03:37AM -33.9560 151.1880 165° South 24 28 240 Level FlightAware
03:37AM -33.9590 151.1890 165° South 28 32 240 Level FlightAware
03:37AM -33.9620 151.1900 165° South 26 30 300 Level FlightAware
03:38AM -33.9650 151.1900 180° South 23 26 300 Level FlightAware
03:39AM -33.9690 151.1910 168° South 21 24 360 Level FlightAware
03:39AM -33.9710 151.1910 180° South 5 6 420 Level FlightAware
03:39AM -33.9710 151.1920 90° East 9 10 420 Level FlightAware
03:40AM -33.9710 151.1930 90° East 2 2 480 Level FlightAware
03:42AM -33.7742 151.2765 50° Northeast  Level Estimated
03:42AM -33.9700 151.1940 50° Northeast 15 17  Level FlightAware
03:42AM -33.9570 151.1900 346° North 147 169 1,680 Level FlightAware
03:43AM -33.9352 151.1880 346° North 148 170 1,700 2,880 Climbing Aus ATC (RADAR)
03:43AM -33.9280 151.1920 346° North 145 167 2,100 1,680 Climbing FlightAware
03:43AM -33.9130 151.2030 31° Northeast 156 180 2,800 1,380 Climbing FlightAware
03:44AM -33.8950 151.2210 40° Northeast 188 216 3,400 1,200 Climbing FlightAware
03:44AM -33.8750 151.2380 35° Northeast 233 268 3,900 1,260 Climbing FlightAware
03:45AM -33.8460 151.2630 36° Northeast 270 311 4,600 960 Climbing FlightAware
03:45AM -33.8280 151.2870 48° Northeast 271 312 4,800 240 Climbing FlightAware
03:45AM -33.8210 151.3090 69° East 273 314 4,800 720 Level FlightAware
03:46AM -33.8061 151.3628 69° East 272 313 5,400 900 Climbing Aus ATC (RADAR)
03:46AM -33.8040 151.3660 69° East 282 325 5,400 2,580 Level FlightAware
03:46AM -33.7920 151.3800 44° Northeast 282 325 6,100 3,960 Climbing FlightAware
03:46AM -33.7770 151.3880 24° Northeast 276 318 7,000 3,180 Climbing FlightAware
03:47AM -33.7520 151.3980 18° North 273 314 8,300 3,780 Climbing FlightAware
03:47AM -33.7023 151.4183 18° North 282 325 10,700 3,000 Climbing Aus ATC (RADAR)
03:48AM -33.6880 151.4240 18° North 304 350 10,600 1,320 Descending FlightAware
03:48AM -33.6310 151.4480 19° North 337 388 11,900 1,440 Climbing FlightAware
03:49AM -33.5580 151.4780 19° North 387 445 12,700 1,620 Climbing FlightAware
03:50AM -33.4870 151.5070 19° North 398 458 14,200 2,340 Climbing FlightAware
03:50AM -33.4020 151.5417 19° North 411 473 16,100 1,980 Climbing Aus ATC (RADAR)
03:50AM -33.3930 151.5450 19° North 408 470 16,000 2,040 Descending FlightAware
03:51AM -33.3040 151.5820 19° North 410 472 18,100 2,160 Climbing FlightAware
03:52AM -33.2110 151.6190 18° North 428 493 19,500 1,860 Climbing FlightAware
03:53AM -33.1450 151.6460 19° North 444 511 20,600 1,800 Climbing FlightAware
03:53AM -33.0540 151.6830 19° North 446 513 21,900 1,860 Climbing FlightAware
03:53AM -33.0512 151.6845 19° North 448 516 22,100 1,380 Climbing Aus ATC (RADAR)
03:54AM -32.9703 151.7168 19° North 460 529 22,900 960 Climbing Aus ATC (RADAR)
03:54AM -32.9630 151.7200 19° North 460 529 22,800 1,080 Descending FlightAware
03:55AM -32.8800 151.7540 19° North 477 549 23,700 1,440 Climbing FlightAware
03:56AM -32.7860 151.7920 19° North 472 543 24,900 1,380 Climbing FlightAware
03:56AM -32.7000 151.8260 18° North 480 552 25,700 1,380 Climbing FlightAware
03:57AM -32.6150 151.8600 18° North 491 565 26,800 1,920 Climbing FlightAware
03:57AM -32.6119 151.8613 18° North 487 560 27,000 1,560 Climbing Aus ATC (RADAR)
03:58AM -32.5260 151.8960 19° North 489 563 28,000 1,200 Climbing FlightAware
03:58AM -32.4320 151.9340 19° North 490 564 28,700 1,860 Climbing FlightAware
03:59AM -32.3390 151.9710 19° North 477 549 30,700 1,860 Climbing FlightAware
04:00AM -32.2320 152.0130 19° North 476 548 31,700 1,380 Climbing FlightAware
04:00AM -32.2245 152.0155 19° North 476 548 31,900 1,920 Climbing Aus ATC (RADAR)
04:01AM -32.1450 152.0480 19° North 475 547 33,000 1,020 Climbing FlightAware
04:01AM -32.0510 152.0850 18° North 479 551 33,400 780 Climbing FlightAware
04:02AM -31.9843 152.1115 18° North 485 558 34,000 900 Climbing Aus ATC (RADAR)
04:02AM -31.9660 152.1180 18° North 491 565 34,000 600 Level FlightAware
04:03AM -31.8780 152.1530 18° North 490 564 34,500 1,140 Climbing FlightAware
04:03AM -31.8623 152.1591 18° North 490 564 34,900 1,620 Climbing Aus ATC (RADAR)
04:03AM -31.7890 152.1880 18° North 487 560 35,700 1,200 Climbing FlightAware
04:04AM -31.6941 152.2255 18° North 483 556 36,600 720 Climbing Aus ATC (RADAR)
04:04AM -31.6480 152.2430 18° North 491 565 36,500 360 Descending FlightAware
04:05AM -31.5550 152.2800 19° North 495 570 37,000 540 Climbing FlightAware
04:06AM -31.4669 152.3141 19° North 489 563 37,300  Climbing Aus ATC (RADAR)
04:06AM -31.4640 152.3150 19° North 493 567 37,000 -420 Descending FlightAware
04:07AM -31.3760 152.3500 19° North 494 568 37,000  Level FlightAware
04:07AM -31.2900 152.3830 19° North 498 573 37,000 420 Level FlightAware
04:07AM -31.2827 152.3862 19° North 491 565 37,300 420 Climbing Aus ATC (RADAR)
04:08AM -31.1916 152.4213 19° North 499 574 37,300 -420 Level Aus ATC (RADAR)
04:08AM -31.1890 152.4230 19° North 502 578 37,000  Descending FlightAware
04:09AM -31.1164 152.4503 19° North 499 574 37,300 120 Climbing Aus ATC (RADAR)
04:09AM -31.1000 152.4570 19° North 504 580 37,100 -420 Descending FlightAware
04:09AM -31.0180 152.4890 18° North 503 579 37,000 120 Descending FlightAware
04:10AM -30.9400 152.5190 18° North 496 571 37,300  Climbing Aus ATC (RADAR)
04:11AM -30.8370 152.5580 18° North 510 587 37,000 -180 Descending FlightAware
04:12AM -30.6870 152.6250 18° North 519 597 37,000 240 Level FlightAware
04:12AM -30.6786 152.6290 18° North 519 597 37,300  Climbing Aus ATC (RADAR)
04:13AM -30.5650 152.6820 22° Northeast 518 596 37,000  Descending FlightAware
04:13AM -30.4686 152.7252 22° Northeast 514 592 37,300  Climbing Aus ATC (RADAR)
04:13AM -30.4650 152.7280 22° Northeast 520 598 37,000  Descending FlightAware
04:14AM -30.3902 152.7614 22° Northeast 515 593 37,300  Climbing Aus ATC (RADAR)
04:14AM -30.3730 152.7700 22° Northeast 521 600 37,000 -1,440 Descending FlightAware
04:15AM -30.2830 152.8110 22° Northeast 512 589 36,200 -720 Descending FlightAware
04:15AM -30.2780 152.8118 22° Northeast 512 589 36,500 -1,200 Climbing Aus ATC (RADAR)
04:15AM -30.1880 152.8550 22° Northeast 488 562 35,300 -1,740 Descending FlightAware
04:16AM -30.1090 152.8920 22° Northeast 477 549 34,200 -1,740 Descending FlightAware
04:17AM -30.0160 152.9340 21° North 466 536 32,900 -1,560 Descending FlightAware
04:17AM -29.9477 152.9648 21° North 464 534 32,200 -1,800 Descending Aus ATC (RADAR)
04:18AM -29.9330 152.9720 21° North 458 527 31,700 -1,860 Descending FlightAware
04:18AM -29.8680 153.0020 22° Northeast 445 512 30,900 -1,620 Descending FlightAware
04:19AM -29.7900 153.0370 21° North 436 502 29,700 -1,500 Descending FlightAware
04:19AM -29.7321 153.0646 21° North 424 488 29,100 -1,740 Descending Aus ATC (RADAR)
04:20AM -29.7060 153.0750 21° North 426 490 28,400 -2,100 Descending FlightAware
04:20AM -29.6330 153.1080 21° North 418 481 27,300 -1,800 Descending FlightAware
04:21AM -29.5540 153.1440 22° Northeast 412 474 25,900 -1,560 Descending FlightAware
04:22AM -29.4830 153.1760 21° North 400 460 25,100 -1,380 Descending FlightAware
04:22AM -29.4140 153.2070 21° North 386 444 24,000 -1,380 Descending FlightAware
04:23AM -29.3527 153.2342 21° North 384 442 23,400 -1,500 Descending Aus ATC (RADAR)
04:23AM -29.3400 153.2400 21° North 377 434 23,000 -2,460 Descending FlightAware
04:24AM -29.2560 153.2780 22° Northeast 380 437 20,900 -1,920 Descending FlightAware
04:25AM -29.1986 153.3052 22° Northeast 379 436 20,200 -900 Descending Aus ATC (RADAR)
04:25AM -29.1630 153.3200 22° Northeast 384 442 20,000 -1,140 Descending FlightAware
04:26AM -29.0930 153.3510 21° North 375 432 18,900 -1,980 Descending FlightAware
04:26AM -29.0240 153.3820 21° North 361 415 17,300 -1,860 Descending FlightAware
04:27AM -28.9680 153.4070 21° North 355 409 16,700 -1,020 Descending FlightAware
04:28AM -28.9010 153.4370 21° North 350 403 16,000 -960 Descending FlightAware
04:28AM -28.8410 153.4640 22° Northeast 345 397 15,400 -1,020 Descending FlightAware
04:29AM -28.7740 153.4940 21° North 342 394 14,600 -1,320 Descending FlightAware
04:30AM -28.7170 153.5190 21° North 337 388 13,600 -1,500 Descending FlightAware
04:30AM -28.6560 153.5460 21° North 333 383 12,600 -1,500 Descending FlightAware
04:31AM -28.6039 153.5695 21° North 331 381 11,700 -1,980 Descending Aus ATC (RADAR)
04:31AM -28.6000 153.5710 21° North 328 377 11,300 -2,340 Descending FlightAware
04:32AM -28.5390 153.5980 21° North 325 374 9,800 -1,920 Descending FlightAware
04:32AM -28.4860 153.6100 11° North 316 364 8,800 -1,800 Descending FlightAware
04:33AM -28.4510 153.6160 North 314 361 8,000 -1,860 Descending FlightAware
04:33AM -28.4070 153.6220 North 311 358 7,100 -1,740 Descending FlightAware
04:33AM -28.3980 153.6240 11° North 309 356 6,900 -1,500 Descending FlightAware
04:34AM -28.3430 153.6320 North 297 342 6,000 -1,140 Descending FlightAware
04:35AM -28.3040 153.6380 North 279 321 5,600 -900 Descending FlightAware
04:35AM -28.2530 153.6460 North 259 298 5,000 -960 Descending FlightAware
04:36AM -28.2280 153.6410 350° North 261 300 4,700 -780 Descending FlightAware
04:36AM -28.1940 153.6320 347° North 263 303 4,400 -720 Descending FlightAware
04:36AM -28.1740 153.6270 348° North 262 302 4,200 -720 Descending FlightAware
04:37AM -28.1390 153.6180 347° North 261 300 3,900 -720 Descending FlightAware
04:37AM -28.1090 153.6100 347° North 246 283 3,600 -540 Descending FlightAware
04:38AM -28.0770 153.6030 349° North 229 264 3,400 -540 Descending FlightAware
04:38AM -28.0500 153.5960 347° North 215 247 3,100 -720 Descending FlightAware
04:39AM -28.0240 153.5880 345° North 202 232 2,800 -720 Descending FlightAware
04:39AM -28.0140 153.5760 313° West 206 237 2,600 -600 Descending FlightAware
04:39AM -28.0060 153.5490 289° West 199 229 2,400 -420 Descending FlightAware
04:40AM -28.0020 153.5170 278° West 197 227 2,200 -240 Descending FlightAware
04:40AM -28.0020 153.4950 270° West 199 229 2,200 -300 Level FlightAware
04:41AM -28.0180 153.4570 244° Southwest 189 217 1,900 -360 Descending FlightAware
04:41AM -28.0420 153.4590 176° South 169 194 1,800 -120 Descending FlightAware
04:42AM -28.0600 153.4650 164° South 170 196 1,800  Level FlightAware
04:42AM -28.0770 153.4700 164° South 170 196 1,800 -600 Level FlightAware
04:42AM -28.0881 153.4744 164° South 159 183 1,500 -1,080 Descending Aus ATC (RADAR)
04:43AM -28.1060 153.4810 164° South 153 176 1,100 -900 Descending FlightAware
04:43AM -28.1093 153.4830 164° South 139 160 1,000 -720 Descending Aus ATC (RADAR)
04:44AM -28.1407 153.4900 164° South 138 159 500 -600 Descending Aus ATC (RADAR)